Time;durP1;ratioP1;P1;durP2;ratioP2;P2;SDS_P1;SDS_P2;PMS_P1;PMS_P2;Temp;Humidity;BMP_temperature;BMP_pressure;BME280_temperature;BME280_humidity;BME280_pressure;Samples;Min_cycle;Max_cycle;Signal;HPM_P1;HPM_P2
2022/08/11 00:02:28;;;;;;;9.65;4.22;;;;;;;15.04;55.81;101519.92;1709452;80;21212;-76
2022/08/11 00:04:55;;;;;;;9.15;3.45;;;;;;;14.98;56.02;101515.25;1732818;80;21060;-76
2022/08/11 00:07:23;;;;;;;7.75;3.47;;;;;;;14.93;56.21;101518.94;1741659;80;21555;-76
2022/08/11 00:09:49;;;;;;;5.15;3.22;;;;;;;14.89;56.41;101521.63;1718331;80;21985;-75
2022/08/11 00:12:16;;;;;;;4.08;3.02;;;;;;;14.85;56.61;101518.94;1725650;80;21523;-76
2022/08/11 00:14:42;;;;;;;6.03;3.17;;;;;;;14.81;56.79;101523.00;1711265;80;21566;-75
2022/08/11 00:17:09;;;;;;;11.97;3.83;;;;;;;14.75;56.99;101525.00;1737867;80;21502;-76
2022/08/11 00:19:42;;;;;;;11.83;3.52;;;;;;;14.72;57.21;101525.34;1721226;80;21079;-76
2022/08/11 00:22:08;;;;;;;5.85;3.40;;;;;;;14.68;57.40;101525.34;1728717;80;21228;-76
2022/08/11 00:24:38;;;;;;;13.10;4.20;;;;;;;14.64;57.61;101524.84;1701602;80;21067;-76
2022/08/11 00:27:04;;;;;;;6.22;3.10;;;;;;;14.63;57.79;101527.70;1726784;81;21046;-76
2022/08/11 00:29:30;;;;;;;9.35;2.83;;;;;;;14.59;58.07;101533.08;1713330;80;21021;-76
2022/08/11 00:31:58;;;;;;;7.42;2.52;;;;;;;14.54;58.14;101529.54;1721515;80;21546;-75
2022/08/11 00:34:28;;;;;;;5.85;2.62;;;;;;;14.47;58.31;101529.38;1719973;80;21095;-75
2022/08/11 00:37:05;;;;;;;3.85;2.70;;;;;;;14.39;58.47;101529.36;1707156;80;21037;-76
2022/08/11 00:39:35;;;;;;;4.00;2.80;;;;;;;14.34;58.64;101521.49;1709909;80;21088;-76
2022/08/11 00:42:24;;;;;;;7.42;2.55;;;;;;;14.29;58.81;101526.47;1722479;80;21031;-75
2022/08/11 00:45:26;;;;;;;4.78;2.58;;;;;;;14.22;58.95;101526.30;1711292;80;21045;-76
2022/08/11 00:48:16;;;;;;;8.28;3.40;;;;;;;14.16;59.15;101520.27;1722793;80;21919;-76
2022/08/11 00:51:03;;;;;;;6.50;3.27;;;;;;;14.11;59.31;101522.59;1706886;80;21232;-76
2022/08/11 00:53:46;;;;;;;7.85;4.70;;;;;;;14.07;59.45;101518.59;1718038;80;21557;-75
2022/08/11 00:56:50;;;;;;;10.30;4.15;;;;;;;14.01;59.61;101515.20;1720703;80;21027;-76
2022/08/11 00:59:31;;;;;;;9.48;6.35;;;;;;;13.95;59.77;101521.23;1698439;80;21034;-76
2022/08/11 01:02:20;;;;;;;7.92;5.53;;;;;;;13.88;59.94;101528.25;1709363;80;21205;-75
2022/08/11 01:05:10;;;;;;;9.33;6.33;;;;;;;13.84;60.06;101524.22;1684837;82;21135;-75
2022/08/11 01:07:54;;;;;;;10.45;6.15;;;;;;;13.81;60.19;101523.20;1733448;80;21170;-75
2022/08/11 01:11:00;;;;;;;8.08;5.42;;;;;;;13.81;60.30;101519.19;1734713;80;21057;-75
2022/08/11 01:14:08;;;;;;;10.28;6.97;;;;;;;13.77;60.42;101525.88;1708842;80;21043;-75
2022/08/11 01:17:21;;;;;;;11.38;6.50;;;;;;;13.68;60.58;101518.82;1721577;80;21492;-76
2022/08/11 01:20:10;;;;;;;13.90;7.37;;;;;;;13.63;60.75;101521.14;1717762;80;21076;-75
2022/08/11 01:23:00;;;;;;;13.08;7.37;;;;;;;13.58;60.95;101520.80;1724093;80;26767;-76
2022/08/11 01:26:03;;;;;;;10.45;7.05;;;;;;;13.56;61.12;101520.10;1675609;81;21520;-75
2022/08/11 01:28:40;;;;;;;13.75;7.47;;;;;;;13.53;61.26;101520.43;1724564;80;21058;-75
2022/08/11 01:31:45;;;;;;;12.00;8.45;;;;;;;13.34;61.42;101499.58;1713485;80;21917;-75
2022/08/11 01:34:29;;;;;;;12.37;7.75;;;;;;;13.40;61.58;101521.73;1719518;80;21121;-75
2022/08/11 01:37:32;;;;;;;14.93;7.42;;;;;;;13.35;61.81;101521.86;1731266;81;21078;-75
2022/08/11 01:40:43;;;;;;;10.43;6.33;;;;;;;13.22;62.04;101508.92;1699081;81;21118;-76
2022/08/11 01:46:48;;;;;;;11.33;8.28;;;;;;;13.10;62.33;101504.82;1721999;80;21217;-75
2022/08/11 01:49:29;;;;;;;14.93;8.70;;;;;;;13.16;62.63;101528.28;1734486;81;21025;-75
2022/08/11 01:52:12;;;;;;;19.37;11.48;;;;;;;13.16;62.63;101528.28;1702465;82;21089;-76
2022/08/11 01:54:49;;;;;;;12.07;7.85;;;;;;;13.05;62.68;101532.56;1683663;82;21197;-75
2022/08/11 01:57:27;;;;;;;8.90;5.95;;;;;;;12.97;62.79;101516.44;1705002;81;21069;-75
2022/08/11 02:00:19;;;;;;;10.13;5.95;;;;;;;12.97;62.98;101525.81;1694394;82;21926;-75
2022/08/11 02:03:06;;;;;;;11.65;6.60;;;;;;;12.97;63.14;101535.18;1714215;82;21109;-75
2022/08/11 02:05:59;;;;;;;6.92;5.12;;;;;;;12.99;63.31;101522.46;1698049;82;21131;-75
2022/08/11 02:09:07;;;;;;;10.08;5.70;;;;;;;12.83;63.53;101509.83;1704682;80;21212;-75
2022/08/11 02:11:33;;;;;;;13.00;6.20;;;;;;;12.83;63.53;101509.83;1712763;80;21078;-76
2022/08/11 02:14:04;;;;;;;10.55;5.85;;;;;;;12.90;63.79;101527.44;1688930;80;22204;-76
2022/08/11 02:16:59;;;;;;;12.30;6.75;;;;;;;12.90;63.92;101526.09;1732142;80;21464;-75
2022/08/11 02:25:58;;;;;;;9.55;6.55;;;;;;;12.88;64.31;101518.70;1728743;79;21057;-75
2022/08/11 02:28:54;;;;;;;17.98;6.08;;;;;;;12.86;64.48;101522.05;1723887;80;21182;-75
2022/08/11 02:35:04;;;;;;;19.65;6.00;;;;;;;12.79;64.70;101531.70;1748066;80;21036;-75
2022/08/11 02:37:54;;;;;;;46.83;7.40;;;;;;;12.75;64.84;101529.84;1758749;79;21017;-76
2022/08/11 02:40:30;;;;;;;40.85;6.60;;;;;;;12.70;64.97;101525.44;1704110;79;21046;-75
2022/08/11 02:43:28;;;;;;;15.38;5.53;;;;;;;12.67;65.11;101532.94;1725312;79;21162;-75
2022/08/11 02:46:05;;;;;;;24.40;5.20;;;;;;;12.64;65.24;101526.07;1709708;80;21059;-74
2022/08/11 02:51:56;;;;;;;28.65;7.42;;;;;;;12.61;65.45;101518.36;1735830;79;21002;-75
2022/08/11 02:54:48;;;;;;;25.32;5.35;;;;;;;12.62;65.56;101520.54;1747908;79;21582;-75
2022/08/11 02:57:20;;;;;;;13.15;5.22;;;;;;;12.56;65.65;101520.64;1725006;80;21173;-76
2022/08/11 02:59:54;;;;;;;12.25;5.45;;;;;;;12.42;65.70;101519.37;1738901;79;20993;-76
2022/08/11 03:02:40;;;;;;;12.25;5.60;;;;;;;12.42;65.70;101519.37;1741550;80;21053;-76
2022/08/11 03:05:24;;;;;;;12.10;6.40;;;;;;;12.34;65.98;101511.30;1744299;80;21125;-75
2022/08/11 03:08:12;;;;;;;12.43;5.78;;;;;;;12.30;66.10;101513.92;1743384;80;21007;-65
2022/08/11 03:16:43;;;;;;;11.97;5.70;;;;;;;12.33;66.18;101514.95;1742067;80;21126;-65
2022/08/11 03:19:19;;;;;;;8.35;5.72;;;;;;;12.19;66.53;101522.18;1710373;81;20975;-65
2022/08/11 03:22:30;;;;;;;9.35;5.83;;;;;;;12.17;66.65;101525.52;1742758;80;21058;-65
2022/08/11 03:25:31;;;;;;;13.08;7.47;;;;;;;12.13;66.77;101532.16;1699292;82;21497;-65
2022/08/11 03:28:27;;;;;;;11.93;5.28;;;;;;;12.06;66.90;101529.75;1698509;82;20995;-65
2022/08/11 03:31:34;;;;;;;10.75;5.12;;;;;;;12.02;67.06;101525.69;1695172;82;21519;-65
2022/08/11 03:34:11;;;;;;;11.28;5.78;;;;;;;12.01;67.19;101522.17;1732590;80;21011;-65
2022/08/11 03:36:57;;;;;;;9.95;5.37;;;;;;;12.01;67.32;101528.01;1700900;81;20999;-65
2022/08/11 03:39:51;;;;;;;8.88;4.87;;;;;;;12.04;67.40;101534.39;1720371;81;21066;-65
2022/08/11 03:42:43;;;;;;;9.88;5.15;;;;;;;12.03;67.52;101532.20;1712516;80;21032;-65
2022/08/11 03:45:28;;;;;;;12.33;5.17;;;;;;;11.99;67.59;101530.85;1722464;81;21599;-65
2022/08/11 03:48:20;;;;;;;11.45;5.03;;;;;;;12.00;67.71;101530.33;1711154;80;22079;-65
2022/08/11 03:51:08;;;;;;;10.93;5.03;;;;;;;11.96;67.75;101531.65;1699985;80;21023;-65
2022/08/11 03:54:15;;;;;;;20.72;5.50;;;;;;;11.97;67.88;101525.29;1715358;81;21952;-65
2022/08/11 03:56:59;;;;;;;10.23;5.87;;;;;;;11.96;67.97;101530.31;1706473;80;21070;-66
2022/08/11 03:59:45;;;;;;;11.28;4.92;;;;;;;11.97;68.06;101529.30;1723442;81;21134;-65
2022/08/11 04:02:46;;;;;;;8.25;4.58;;;;;;;11.96;68.12;101530.31;1717659;80;21030;-66
2022/08/11 04:05:46;;;;;;;13.22;3.98;;;;;;;11.95;68.20;101533.97;1726964;81;21058;-66
2022/08/11 04:08:21;;;;;;;15.48;4.70;;;;;;;11.98;68.25;101530.98;1739070;80;21155;-66
2022/08/11 04:11:31;;;;;;;12.05;4.80;;;;;;;12.03;68.35;101535.41;1731700;80;21603;-65
2022/08/11 04:17:49;;;;;;;13.03;4.00;;;;;;;12.30;68.59;101539.34;1690457;80;21220;-66
2022/08/11 04:20:55;;;;;;;10.45;4.20;;;;;;;13.81;69.06;101537.45;1713551;80;21046;-66
2022/08/11 04:24:06;;;;;;;15.60;4.67;;;;;;;15.41;68.46;101522.82;1707588;80;21161;-66
2022/08/11 04:26:55;;;;;;;7.87;3.47;;;;;;;16.96;67.53;101530.22;1728088;79;21499;-66
2022/08/11 04:29:38;;;;;;;16.30;4.37;;;;;;;18.10;66.64;101529.19;1743149;79;21035;-65
2022/08/11 04:32:42;;;;;;;20.17;3.75;;;;;;;18.81;65.71;101520.63;1733678;79;21009;-66
2022/08/11 04:35:42;;;;;;;11.65;3.30;;;;;;;19.57;64.83;101520.17;1730320;80;21489;-66
2022/08/11 04:38:32;;;;;;;5.42;3.27;;;;;;;20.82;63.33;101524.02;1731057;80;21813;-66
2022/08/11 04:41:30;;;;;;;8.95;3.37;;;;;;;21.86;61.85;101512.05;1698377;82;21032;-66
2022/08/11 04:44:34;;;;;;;9.47;3.23;;;;;;;22.42;60.37;101511.31;1687506;82;20995;-66
2022/08/11 05:03:16;;;;;;;13.70;6.40;;;;;;;23.24;51.63;101521.07;1676749;83;21072;-66
2022/08/11 05:06:26;;;;;;;18.15;6.53;;;;;;;23.11;51.27;101522.05;1720930;81;21030;-66
2022/08/11 05:09:15;;;;;;;7.20;5.20;;;;;;;22.79;51.09;101517.23;1682317;83;21201;-67
2022/08/11 05:11:47;;;;;;;;;;;;;;;22.60;50.95;101520.91;1676481;82;21068;-66
2022/08/11 05:34:53;;;;;;;10.18;5.85;;;;;;;22.32;49.47;101530.84;1694470;83;21006;-67
2022/08/11 05:37:27;;;;;;;13.20;6.35;;;;;;;22.12;49.14;101542.37;1691979;82;21146;-67
2022/08/11 05:56:55;;;;;;;12.53;7.25;;;;;;;22.80;47.90;101542.52;1741250;80;21001;-67
2022/08/11 05:59:23;;;;;;;13.20;6.83;;;;;;;22.90;47.67;101542.88;1742966;81;21478;-67
2022/08/11 06:01:49;;;;;;;18.90;9.45;;;;;;;22.96;47.62;101546.06;1704996;82;21042;-67
2022/08/11 06:04:23;;;;;;;16.52;9.08;;;;;;;23.09;47.44;101545.92;1735216;81;21546;-67
2022/08/11 06:07:02;;;;;;;14.28;8.40;;;;;;;23.28;47.30;101542.19;1712499;82;21062;-67
2022/08/11 06:09:39;;;;;;;25.43;13.18;;;;;;;23.24;47.08;101545.05;1708494;81;21480;-68
2022/08/11 06:12:16;;;;;;;25.55;10.93;;;;;;;23.13;46.99;101548.50;1697928;83;21133;-67
2022/08/11 06:14:43;;;;;;;26.55;13.05;;;;;;;23.34;46.88;101552.69;1731183;81;21019;-67
2022/08/11 06:17:09;;;;;;;23.10;10.82;;;;;;;23.57;46.72;101555.63;1710369;80;21469;-67
2022/08/11 06:19:41;;;;;;;14.78;10.08;;;;;;;23.60;46.57;101547.52;1695965;82;21075;-67
2022/08/11 06:22:10;;;;;;;13.88;7.62;;;;;;;23.66;46.46;101547.95;1739859;80;21054;-67
2022/08/11 06:24:41;;;;;;;21.27;8.65;;;;;;;23.71;46.29;101546.76;1743415;80;21069;-67
2022/08/11 06:27:07;;;;;;;16.82;9.93;;;;;;;23.85;46.04;101545.53;1706454;82;21117;-68
2022/08/11 06:29:40;;;;;;;29.72;14.68;;;;;;;23.98;45.90;101552.16;1707523;80;21585;-67
2022/08/11 06:32:03;;;;;;;24.18;14.25;;;;;;;24.09;45.70;101545.94;1737058;80;21066;-68
2022/08/11 06:34:35;;;;;;;21.35;12.70;;;;;;;24.36;45.53;101545.87;1717385;80;21067;-68
2022/08/11 06:37:48;;;;;;;23.70;8.50;;;;;;;24.43;45.23;101547.67;1709385;80;21507;-68
2022/08/11 06:44:03;;;;;;;20.70;4.80;;;;;;;24.73;44.72;101540.27;1691746;81;21601;-68
2022/08/11 06:46:31;;;;;;;9.38;2.90;;;;;;;24.75;44.47;101536.77;1688037;82;21496;-68
2022/08/11 06:49:01;;;;;;;7.45;3.20;;;;;;;24.80;44.18;101534.17;1692364;82;21057;-68
2022/08/11 06:51:27;;;;;;;8.68;2.65;;;;;;;24.93;43.85;101538.06;1685110;82;21038;-67
2022/08/11 06:53:58;;;;;;;4.60;2.60;;;;;;;25.04;43.55;101532.30;1691960;82;20888;-68
2022/08/11 07:02:17;;;;;;;3.10;2.10;;;;;;;25.22;42.78;101531.66;1741873;80;20915;-68
2022/08/11 07:05:00;;;;;;;3.98;2.20;;;;;;;25.35;42.36;101533.29;1706231;82;21513;-68
2022/08/11 07:16:53;;;;;;;3.98;1.75;;;;;;;25.46;41.25;101521.52;1717951;80;21023;-68
2022/08/11 07:30:51;;;;;;;7.10;2.00;;;;;;;26.20;39.80;101516.50;1694244;83;20965;-68
2022/08/11 07:33:45;;;;;;;3.80;1.55;;;;;;;26.30;39.57;101515.31;1707907;82;21085;-68
2022/08/11 07:36:11;;;;;;;2.10;1.60;;;;;;;26.54;39.24;101516.52;1696738;82;21037;-68
2022/08/11 07:38:44;;;;;;;3.05;1.52;;;;;;;26.61;38.77;101516.66;1685211;82;21312;-68
2022/08/11 07:41:15;;;;;;;2.55;1.65;;;;;;;26.62;38.34;101522.43;1678433;83;21045;-68
2022/08/11 07:43:42;;;;;;;3.77;1.82;;;;;;;26.42;37.95;101517.98;1684444;82;20950;-68
2022/08/11 07:54:20;;;;;;;3.27;1.60;;;;;;;26.51;37.18;101511.02;1719878;81;20938;-68
2022/08/11 07:56:46;;;;;;;4.53;1.70;;;;;;;26.44;36.95;101512.25;1741580;80;21014;-68
2022/08/11 08:18:24;;;;;;;2.87;1.12;;;;;;;26.70;36.33;101513.81;1664127;83;21885;-77
2022/08/11 08:20:50;;;;;;;2.90;1.32;;;;;;;26.81;36.16;101507.95;1683828;82;21022;-77
2022/08/11 08:23:31;;;;;;;5.00;1.50;;;;;;;26.94;35.96;101499.42;1698936;82;20951;-77
2022/08/11 08:25:50;;;;;;;7.80;1.65;;;;;;;26.97;35.76;101508.50;1690385;83;21109;-77
2022/08/11 08:28:16;;;;;;;6.30;1.60;;;;;;;27.03;35.65;101504.74;1687741;82;21065;-77
2022/08/11 08:30:51;;;;;;;6.22;1.75;;;;;;;27.04;35.65;101506.95;1690884;82;21964;-76
2022/08/11 08:33:23;;;;;;;7.62;2.42;;;;;;;27.15;35.59;101498.63;1686490;82;21467;-77
2022/08/11 08:36:10;;;;;;;3.58;1.40;;;;;;;27.21;35.49;101503.09;1698352;81;21014;-77
2022/08/11 08:38:45;;;;;;;5.53;1.30;;;;;;;27.19;35.32;101497.05;1693894;82;21054;-76
2022/08/11 08:41:11;;;;;;;5.20;1.30;;;;;;;27.16;35.09;101500.27;1696873;82;21045;-77
2022/08/11 08:43:38;;;;;;;4.62;1.57;;;;;;;27.13;34.99;101496.67;1683245;82;21900;-77
2022/08/11 08:46:05;;;;;;;4.47;1.42;;;;;;;27.08;34.76;101495.78;1690980;82;21030;-77
2022/08/11 08:48:31;;;;;;;3.40;1.25;;;;;;;27.12;34.67;101498.31;1730928;81;20998;-77
2022/08/11 08:53:50;;;;;;;1.72;1.25;;;;;;;27.17;34.40;101491.52;1732313;81;21014;-77
2022/08/11 08:56:17;;;;;;;1.98;1.20;;;;;;;27.04;34.26;101489.14;1732515;81;21859;-77
2022/08/11 08:58:45;;;;;;;12.88;1.60;;;;;;;26.90;34.27;101491.41;1742269;80;20933;-77
2022/08/11 09:01:11;;;;;;;6.77;1.50;;;;;;;27.03;34.42;101489.68;1695016;83;21273;-77
2022/08/11 09:03:38;;;;;;;3.67;1.40;;;;;;;27.00;34.40;101487.45;1684093;82;21070;-77
2022/08/11 09:06:05;;;;;;;6.12;1.30;;;;;;;26.95;34.21;101487.36;1680130;82;21177;-77
2022/08/11 09:08:31;;;;;;;4.72;1.32;;;;;;;26.83;34.11;101483.92;1738267;81;21866;-77
2022/08/11 09:13:43;;;;;;;5.87;1.15;;;;;;;26.99;34.13;101487.16;1707270;81;21180;-77
2022/08/11 09:16:09;;;;;;;2.87;1.55;;;;;;;27.07;34.07;101482.62;1692974;82;21475;-77
2022/08/11 09:18:36;;;;;;;3.22;1.22;;;;;;;27.07;33.96;101482.62;1683432;83;21006;-77
2022/08/11 09:21:02;;;;;;;1.67;1.02;;;;;;;26.97;33.84;101479.74;1693162;82;22635;-77
2022/08/11 09:28:58;;;;;;;2.92;1.52;;;;;;;26.91;33.71;101480.76;1740304;80;21231;-76
2022/08/11 09:31:25;;;;;;;9.40;1.95;;;;;;;26.95;33.66;101469.56;1734835;81;21542;-76
2022/08/11 09:33:53;;;;;;;3.17;1.12;;;;;;;26.95;33.62;101468.20;1683742;82;22408;-77
2022/08/11 09:41:48;;;;;;;5.33;1.52;;;;;;;27.22;33.25;101480.10;1685639;82;21002;-76
2022/08/11 09:44:56;;;;;;;1.92;1.52;;;;;;;27.20;33.03;101468.55;1696352;82;21577;-76
2022/08/11 09:46:45;;;;;;;2.95;1.60;;;;;;;27.26;32.85;101473.04;1668576;82;21822;-76
2022/08/11 09:49:12;;;;;;;3.77;1.75;;;;;;;27.02;32.59;101466.11;1705568;81;21455;-76
2022/08/11 09:51:38;;;;;;;4.00;1.50;;;;;;;26.86;32.59;101469.72;1694531;82;21607;-76
2022/08/11 09:54:08;;;;;;;3.87;1.30;;;;;;;26.86;32.66;101466.98;1693859;82;21452;-76
2022/08/11 09:59:20;;;;;;;4.85;1.60;;;;;;;26.99;32.47;101471.26;1697489;82;21903;-77
2022/08/11 10:01:53;;;;;;;6.20;1.82;;;;;;;26.98;32.61;101471.83;1709714;82;21633;-76
2022/08/11 10:04:46;;;;;;;2.12;1.60;;;;;;;26.98;32.61;101470.46;1684454;81;21029;-76
2022/08/11 10:07:14;;;;;;;4.15;1.45;;;;;;;26.68;32.56;101467.22;1693934;81;21026;-77
2022/08/11 10:09:52;;;;;;;5.80;1.90;;;;;;;26.61;32.65;101461.09;1705462;81;21104;-76
2022/08/11 10:12:36;;;;;;;3.98;1.50;;;;;;;26.80;32.58;101463.33;1694848;81;21919;-76
2022/08/11 10:20:42;;;;;;;7.23;1.70;;;;;;;26.99;32.42;101458.41;1724323;81;21021;-77
2022/08/11 10:28:37;;;;;;;2.60;1.52;;;;;;;26.89;32.41;101451.41;1694057;82;21073;-78
2022/08/11 10:34:00;;;;;;;4.17;1.57;;;;;;;26.76;32.39;101441.62;1748756;80;21010;-77
2022/08/11 10:36:29;;;;;;;4.90;1.65;;;;;;;26.59;32.46;101442.73;1748735;80;21025;-77
2022/08/11 10:38:56;;;;;;;6.00;2.10;;;;;;;26.53;32.74;101431.42;1691330;82;22528;-79
2022/08/11 10:44:07;;;;;;;1.77;1.40;;;;;;;26.76;32.62;101431.22;1632841;86;21070;-76
2022/08/11 10:49:17;;;;;;;4.65;1.50;;;;;;;26.81;32.42;101423.09;1691417;82;21085;-77
2022/08/11 10:59:58;;;;;;;6.70;1.85;;;;;;;26.96;31.91;101417.84;1695072;82;21027;-76
2022/08/11 11:02:26;;;;;;;3.45;1.75;;;;;;;26.91;31.62;101409.57;1688300;82;20946;-77
2022/08/11 11:05:28;;;;;;;4.55;1.55;;;;;;;26.81;31.57;101410.77;1707971;80;21951;-76
2022/08/11 11:08:01;;;;;;;4.97;1.37;;;;;;;26.97;31.43;101399.50;1692021;81;21067;-76
2022/08/11 11:10:27;;;;;;;2.00;1.70;;;;;;;27.20;31.37;101398.70;1736703;80;21287;-76
2022/08/11 11:18:29;;;;;;;5.22;1.57;;;;;;;27.15;30.83;101393.17;1713462;80;21813;-76
2022/08/11 11:21:06;;;;;;;2.42;1.70;;;;;;;27.24;30.60;101391.63;1722459;81;20978;-76
2022/08/11 11:23:53;;;;;;;2.95;1.37;;;;;;;27.30;30.36;101385.69;1715256;80;21452;-76
2022/08/11 11:26:58;;;;;;;2.83;1.52;;;;;;;27.45;30.17;101389.15;1718994;80;21043;-76
2022/08/11 11:29:39;;;;;;;2.95;1.50;;;;;;;27.60;29.81;101381.92;1727959;80;21134;-76
2022/08/11 11:32:25;;;;;;;5.30;1.90;;;;;;;27.86;29.59;101376.16;1716429;80;21881;-76
2022/08/11 11:35:27;;;;;;;2.12;1.30;;;;;;;27.91;29.42;101373.44;1739986;80;21504;-76
2022/08/11 11:37:54;;;;;;;3.90;1.40;;;;;;;27.80;29.31;101375.80;1730576;80;21211;-76
2022/08/11 11:40:21;;;;;;;3.40;1.42;;;;;;;27.57;29.05;101381.62;1737673;81;21039;-76
2022/08/11 11:42:50;;;;;;;3.90;1.50;;;;;;;27.43;28.83;101380.34;1717940;80;21593;-75
2022/08/11 11:45:21;;;;;;;3.00;1.85;;;;;;;27.22;28.78;101378.74;1716559;80;22721;-76
2022/08/11 11:47:51;;;;;;;3.52;1.75;;;;;;;27.19;28.91;101376.52;1736422;81;20905;-76
2022/08/11 11:50:18;;;;;;;4.58;1.65;;;;;;;27.25;29.06;101364.53;1691008;82;20946;-75
2022/08/11 11:52:44;;;;;;;4.10;1.80;;;;;;;27.38;29.19;101370.67;1736664;81;21054;-76
2022/08/11 11:55:10;;;;;;;5.05;2.22;;;;;;;27.37;29.21;101367.67;1742187;81;21152;-75
2022/08/11 12:03:09;;;;;;;7.28;2.00;;;;;;;27.25;29.79;101361.79;1727721;81;20941;-76
2022/08/11 12:05:35;;;;;;;5.95;2.60;;;;;;;27.35;29.90;101362.98;1695437;82;21174;-76
2022/08/11 12:08:14;;;;;;;1.95;1.65;;;;;;;27.49;30.01;101361.52;1685953;82;20966;-75
2022/08/11 12:13:43;;;;;;;3.95;1.70;;;;;;;27.47;30.15;101358.22;1753767;80;21880;-75
2022/08/11 12:16:12;;;;;;;2.12;1.67;;;;;;;27.24;30.00;101358.76;1767427;80;21038;-76
2022/08/11 12:18:40;;;;;;;2.12;1.57;;;;;;;27.20;29.99;101358.98;1771348;80;21469;-75
2022/08/11 12:21:07;;;;;;;2.77;1.40;;;;;;;27.18;29.89;101353.48;1706681;82;21022;-75
2022/08/11 12:29:04;;;;;;;4.17;1.87;;;;;;;27.44;29.69;101340.89;1715130;81;21503;-75
2022/08/11 12:31:33;;;;;;;3.62;1.50;;;;;;;27.65;29.67;101330.45;1693764;82;21053;-74
2022/08/11 12:34:04;;;;;;;5.33;1.57;;;;;;;27.78;29.44;101328.09;1696751;81;21002;-76
2022/08/11 12:36:34;;;;;;;26.00;2.60;;;;;;;27.58;29.18;101328.46;1747079;80;21890;-76
2022/08/11 12:39:00;;;;;;;6.37;2.40;;;;;;;27.57;29.11;101325.43;1720937;80;21300;-75
2022/08/11 12:46:57;;;;;;;2.20;1.35;;;;;;;27.12;29.02;101317.54;1705104;80;21042;-75
2022/08/11 12:52:10;;;;;;;4.97;1.65;;;;;;;27.07;29.12;101316.93;1711659;81;20942;-75
2022/08/11 12:55:04;;;;;;;1.87;1.47;;;;;;;26.96;29.23;101313.78;1690513;81;20943;-75
2022/08/11 13:05:57;;;;;;;5.97;1.75;;;;;;;26.52;29.47;101297.05;1719282;80;21089;-75
2022/08/11 13:08:23;;;;;;;;;;;;;;;26.37;29.49;101292.73;1709015;81;21026;-75
2022/08/11 13:13:37;;;;;;;4.10;1.60;;;;;;;26.49;29.62;101281.14;1701505;81;21013;-69
2022/08/11 13:16:03;;;;;;;7.85;1.70;;;;;;;26.88;29.59;101277.30;1705023;81;21766;-76
2022/08/11 13:18:29;;;;;;;7.47;1.80;;;;;;;27.08;29.44;101284.90;1706686;81;22267;-75
2022/08/11 13:20:55;;;;;;;7.67;1.80;;;;;;;27.21;29.35;101281.20;1707574;82;21756;-75
2022/08/11 13:23:22;;;;;;;3.37;1.95;;;;;;;27.33;29.23;101279.69;1691529;83;21117;-76
2022/08/11 13:25:48;;;;;;;5.95;1.62;;;;;;;27.30;29.09;101274.16;1693177;82;21071;-75
2022/08/11 13:28:15;;;;;;;3.33;1.75;;;;;;;27.38;29.07;101283.00;1706931;81;22007;-74
2022/08/11 13:33:28;;;;;;;2.98;1.55;;;;;;;27.07;28.94;101279.95;1695325;82;21089;-76
2022/08/11 13:35:55;;;;;;;4.42;2.10;;;;;;;27.03;29.12;101267.86;1715374;81;21538;-75
2022/08/11 13:38:22;;;;;;;9.30;2.22;;;;;;;26.89;29.20;101267.14;1700462;82;21471;-75
2022/08/11 13:40:48;;;;;;;2.58;1.60;;;;;;;26.76;29.40;101262.87;1689494;80;22503;-75
2022/08/11 13:43:14;;;;;;;4.28;1.75;;;;;;;26.61;29.59;101258.57;1693204;82;21033;-75
2022/08/11 13:45:42;;;;;;;4.17;1.57;;;;;;;26.61;29.77;101251.19;1695010;82;21089;-76
2022/08/11 13:48:08;;;;;;;1.85;1.52;;;;;;;26.84;29.89;101249.31;1700081;80;20970;-75
2022/08/11 13:53:22;;;;;;;2.77;1.77;;;;;;;27.21;29.84;101234.64;1697375;82;21823;-75
2022/08/11 13:55:48;;;;;;;2.83;1.82;;;;;;;27.25;29.71;101235.78;1698519;82;21852;-75
2022/08/11 13:58:14;;;;;;;6.17;1.60;;;;;;;27.23;29.51;101235.19;1729354;79;21621;-75
2022/08/11 14:00:40;;;;;;;2.35;1.62;;;;;;;27.33;29.45;101228.17;1721017;81;21392;-75
2022/08/11 14:03:10;;;;;;;3.10;1.85;;;;;;;27.48;29.42;101236.56;1717932;81;21022;-77
2022/08/11 14:05:39;;;;;;;6.05;1.90;;;;;;;27.50;29.32;101224.78;1717009;81;21826;-76
2022/08/11 14:08:14;;;;;;;4.17;2.50;;;;;;;27.55;29.28;101220.73;1695867;82;21118;-76
2022/08/11 14:10:40;;;;;;;3.67;1.87;;;;;;;27.47;29.27;101223.94;1732226;81;20949;-77
2022/08/11 14:15:56;;;;;;;5.90;1.80;;;;;;;27.39;29.47;101223.01;1690543;83;20910;-76
2022/08/11 14:18:26;;;;;;;5.78;1.67;;;;;;;27.38;29.48;101228.20;1697419;82;22732;-76
2022/08/11 14:23:41;;;;;;;5.75;1.77;;;;;;;27.36;29.41;101222.17;1696054;82;21498;-76
2022/08/11 14:26:29;;;;;;;4.37;1.80;;;;;;;27.29;29.25;101215.00;1707829;81;20939;-76
2022/08/11 14:28:59;;;;;;;7.80;4.87;;;;;;;27.36;29.16;101213.41;1700538;81;21013;-76
2022/08/11 14:31:26;;;;;;;7.12;4.30;;;;;;;27.43;29.13;101215.92;1692061;82;21880;-77
2022/08/11 14:33:54;;;;;;;5.25;2.40;;;;;;;27.44;29.14;101213.48;1709051;81;21613;-75
2022/08/11 14:36:25;;;;;;;9.78;2.52;;;;;;;27.53;29.21;101209.19;1721505;81;21037;-74
2022/08/11 14:38:52;;;;;;;4.90;2.00;;;;;;;27.47;29.17;101208.33;1728149;81;21087;-75
2022/08/11 14:47:04;;;;;;;5.78;1.80;;;;;;;27.57;29.36;101208.95;1730265;80;21026;-74
2022/08/11 14:49:36;;;;;;;5.90;1.90;;;;;;;27.51;29.41;101205.89;1696632;82;20971;-74
2022/08/11 14:52:14;;;;;;;9.78;1.98;;;;;;;27.59;29.50;101198.53;1699744;82;21019;-75
2022/08/11 14:57:23;;;;;;;3.12;1.60;;;;;;;27.60;29.46;101198.83;1682001;82;21853;-75
2022/08/11 14:59:49;;;;;;;3.67;1.50;;;;;;;27.50;29.50;101212.45;1730216;80;21033;-75
2022/08/11 15:05:03;;;;;;;5.85;2.70;;;;;;;27.01;29.58;101220.75;1714918;80;21061;-75
2022/08/11 15:07:30;;;;;;;6.65;2.42;;;;;;;26.70;29.79;101215.47;1699600;82;21042;-74
2022/08/11 15:09:57;;;;;;;4.97;2.62;;;;;;;26.54;29.94;101218.26;1712361;81;21834;-74
2022/08/11 15:12:24;;;;;;;7.78;2.60;;;;;;;26.36;30.08;101214.47;1690219;82;21085;-75
2022/08/11 15:17:35;;;;;;;13.15;2.50;;;;;;;26.02;30.45;101207.72;1722963;80;21542;-74
2022/08/11 15:25:35;;;;;;;6.53;2.30;;;;;;;26.40;30.73;101201.94;1713947;82;21006;-74
2022/08/11 15:39:03;;;;;;;3.08;1.92;;;;;;;26.99;30.48;101181.83;1717586;81;21141;-75
2022/08/11 15:47:03;;;;;;;4.20;1.80;;;;;;;27.03;30.01;101170.64;1721071;80;21121;-75
2022/08/11 15:49:33;;;;;;;2.52;1.50;;;;;;;27.00;29.93;101173.91;1713212;80;21946;-74
2022/08/11 15:52:11;;;;;;;4.25;1.60;;;;;;;27.04;29.95;101175.05;1696780;82;21472;-74
2022/08/11 15:54:41;;;;;;;7.05;1.90;;;;;;;26.95;29.95;101176.58;1701034;82;21550;-74
2022/08/11 15:57:07;;;;;;;9.48;1.92;;;;;;;26.82;30.01;101179.74;1719320;79;21101;-74
2022/08/11 16:05:08;;;;;;;7.85;1.40;;;;;;;26.32;30.15;101184.89;1746084;79;20987;-74
2022/08/11 16:07:34;;;;;;;8.78;2.50;;;;;;;26.33;30.25;101187.92;1745086;80;21628;-75
2022/08/11 16:10:20;;;;;;;13.00;2.47;;;;;;;26.36;30.36;101178.91;1772042;80;21340;-74
2022/08/11 16:16:21;;;;;;;9.05;2.70;;;;;;;26.39;30.41;101186.63;1718351;81;21694;-75
2022/08/11 16:18:04;;;;;;;7.97;1.65;;;;;;;26.24;30.44;101182.63;1693272;81;20987;-74
2022/08/11 16:20:30;;;;;;;3.22;1.57;;;;;;;26.19;30.45;101181.71;1699595;82;21051;-73
2022/08/11 16:23:02;;;;;;;26.15;2.33;;;;;;;26.17;30.52;101180.62;1682367;82;20970;-74
2022/08/11 16:25:31;;;;;;;4.12;1.67;;;;;;;26.18;30.51;101180.88;1689911;82;21050;-74
2022/08/11 16:28:04;;;;;;;5.10;1.60;;;;;;;26.16;30.46;101180.29;1717573;80;21800;-75
2022/08/11 16:30:33;;;;;;;5.10;1.40;;;;;;;26.16;30.44;101176.19;1749132;80;21172;-74
2022/08/11 16:33:00;;;;;;;22.40;2.40;;;;;;;26.20;30.43;101188.84;1740446;80;21074;-74
2022/08/11 16:40:55;;;;;;;4.30;1.80;;;;;;;26.12;30.44;101178.30;1718242;81;21690;-74
2022/08/11 16:48:45;;;;;;;2.20;1.35;;;;;;;25.94;30.40;101187.63;1690003;82;21051;-75
2022/08/11 16:51:11;;;;;;;2.90;1.50;;;;;;;25.94;30.40;101186.80;1692359;82;21160;-74
2022/08/11 16:53:38;;;;;;;5.60;1.37;;;;;;;25.90;30.30;101193.31;1684914;81;21574;-74